sensor_id;sensor_type;location;lat;lon;timestamp;temperature;humidity
70708;SHT30;58277;47.316;18.908;2022-10-16T00:00:12;14.97;74.61
70708;SHT30;58277;47.316;18.908;2022-10-16T00:02:35;14.84;75.07
70708;SHT30;58277;47.316;18.908;2022-10-16T00:04:58;14.88;75.16
70708;SHT30;58277;47.316;18.908;2022-10-16T00:07:21;14.80;75.01
70708;SHT30;58277;47.316;18.908;2022-10-16T00:09:44;14.80;75.05
70708;SHT30;58277;47.316;18.908;2022-10-16T00:12:06;14.78;75.20
70708;SHT30;58277;47.316;18.908;2022-10-16T00:14:29;14.74;75.00
70708;SHT30;58277;47.316;18.908;2022-10-16T00:16:52;14.63;75.23
70708;SHT30;58277;47.316;18.908;2022-10-16T00:19:14;14.55;75.38
70708;SHT30;58277;47.316;18.908;2022-10-16T00:21:38;14.53;75.57
70708;SHT30;58277;47.316;18.908;2022-10-16T00:24:20;14.53;75.32
70708;SHT30;58277;47.316;18.908;2022-10-16T00:26:42;14.41;75.75
70708;SHT30;58277;47.316;18.908;2022-10-16T00:29:06;14.25;76.49
70708;SHT30;58277;47.316;18.908;2022-10-16T00:31:29;14.26;76.47
70708;SHT30;58277;47.316;18.908;2022-10-16T00:33:52;14.18;76.67
70708;SHT30;58277;47.316;18.908;2022-10-16T00:36:21;14.11;76.71
70708;SHT30;58277;47.316;18.908;2022-10-16T00:38:44;14.04;76.82
70708;SHT30;58277;47.316;18.908;2022-10-16T00:41:11;13.91;76.92
70708;SHT30;58277;47.316;18.908;2022-10-16T00:43:44;13.81;77.36
70708;SHT30;58277;47.316;18.908;2022-10-16T00:46:15;13.67;77.58
70708;SHT30;58277;47.316;18.908;2022-10-16T00:48:38;13.50;78.23
70708;SHT30;58277;47.316;18.908;2022-10-16T00:51:01;13.36;78.15
70708;SHT30;58277;47.316;18.908;2022-10-16T00:53:24;13.32;78.47
70708;SHT30;58277;47.316;18.908;2022-10-16T00:55:47;13.22;78.92
70708;SHT30;58277;47.316;18.908;2022-10-16T00:58:10;13.15;78.89
70708;SHT30;58277;47.316;18.908;2022-10-16T01:00:33;13.12;78.67
70708;SHT30;58277;47.316;18.908;2022-10-16T01:02:59;12.92;79.41
70708;SHT30;58277;47.316;18.908;2022-10-16T01:05:23;12.72;80.28
70708;SHT30;58277;47.316;18.908;2022-10-16T01:07:53;12.61;80.66
70708;SHT30;58277;47.316;18.908;2022-10-16T01:10:32;12.52;80.80
70708;SHT30;58277;47.316;18.908;2022-10-16T01:13:12;12.41;81.10
70708;SHT30;58277;47.316;18.908;2022-10-16T01:15:40;12.48;81.17
70708;SHT30;58277;47.316;18.908;2022-10-16T01:18:20;12.41;81.21
70708;SHT30;58277;47.316;18.908;2022-10-16T01:20:54;12.55;80.50
70708;SHT30;58277;47.316;18.908;2022-10-16T01:23:35;12.41;80.86
70708;SHT30;58277;47.316;18.908;2022-10-16T01:28:25;12.26;81.68
70708;SHT30;58277;47.316;18.908;2022-10-16T01:30:52;12.26;81.62
70708;SHT30;58277;47.316;18.908;2022-10-16T01:33:21;12.23;81.65
70708;SHT30;58277;47.316;18.908;2022-10-16T01:35:49;12.16;81.92
70708;SHT30;58277;47.316;18.908;2022-10-16T01:38:34;12.09;82.37
70708;SHT30;58277;47.316;18.908;2022-10-16T01:41:01;12.20;81.40
70708;SHT30;58277;47.316;18.908;2022-10-16T01:43:35;12.20;81.23
70708;SHT30;58277;47.316;18.908;2022-10-16T01:46:00;12.26;80.71
70708;SHT30;58277;47.316;18.908;2022-10-16T01:48:24;12.23;80.70
70708;SHT30;58277;47.316;18.908;2022-10-16T01:50:59;12.16;80.81
70708;SHT30;58277;47.316;18.908;2022-10-16T01:53:24;12.17;80.54
70708;SHT30;58277;47.316;18.908;2022-10-16T01:55:48;12.19;80.76
70708;SHT30;58277;47.316;18.908;2022-10-16T01:58:12;12.14;81.01
70708;SHT30;58277;47.316;18.908;2022-10-16T02:00:38;12.07;81.03
70708;SHT30;58277;47.316;18.908;2022-10-16T02:03:02;11.96;81.41
70708;SHT30;58277;47.316;18.908;2022-10-16T02:05:34;11.85;82.04
70708;SHT30;58277;47.316;18.908;2022-10-16T02:08:01;11.74;82.76
70708;SHT30;58277;47.316;18.908;2022-10-16T02:10:27;11.75;82.89
70708;SHT30;58277;47.316;18.908;2022-10-16T02:12:59;11.57;83.56
70708;SHT30;58277;47.316;18.908;2022-10-16T02:15:23;11.51;83.85
70708;SHT30;58277;47.316;18.908;2022-10-16T02:17:45;11.52;83.75
70708;SHT30;58277;47.316;18.908;2022-10-16T02:20:08;11.57;83.36
70708;SHT30;58277;47.316;18.908;2022-10-16T02:22:45;11.48;83.30
70708;SHT30;58277;47.316;18.908;2022-10-16T02:25:22;11.61;83.16
70708;SHT30;58277;47.316;18.908;2022-10-16T02:28:06;11.54;82.85
70708;SHT30;58277;47.316;18.908;2022-10-16T02:31:04;11.54;82.78
70708;SHT30;58277;47.316;18.908;2022-10-16T02:33:30;11.47;82.76
70708;SHT30;58277;47.316;18.908;2022-10-16T02:35:54;11.55;82.44
70708;SHT30;58277;47.316;18.908;2022-10-16T02:38:18;11.65;81.80
70708;SHT30;58277;47.316;18.908;2022-10-16T02:40:42;11.62;81.88
70708;SHT30;58277;47.316;18.908;2022-10-16T02:43:05;11.51;82.17
70708;SHT30;58277;47.316;18.908;2022-10-16T02:45:28;11.59;81.52
70708;SHT30;58277;47.316;18.908;2022-10-16T02:47:52;11.68;81.09
70708;SHT30;58277;47.316;18.908;2022-10-16T02:50:28;11.62;81.23
70708;SHT30;58277;47.316;18.908;2022-10-16T02:52:51;11.62;81.01
70708;SHT30;58277;47.316;18.908;2022-10-16T02:55:14;11.64;80.79
70708;SHT30;58277;47.316;18.908;2022-10-16T02:57:36;11.55;81.05
70708;SHT30;58277;47.316;18.908;2022-10-16T02:59:59;11.39;81.87
70708;SHT30;58277;47.316;18.908;2022-10-16T03:02:22;11.32;82.13
70708;SHT30;58277;47.316;18.908;2022-10-16T03:04:44;11.38;82.10
70708;SHT30;58277;47.316;18.908;2022-10-16T03:07:07;11.42;81.37
70708;SHT30;58277;47.316;18.908;2022-10-16T03:09:30;11.44;81.42
70708;SHT30;58277;47.316;18.908;2022-10-16T03:11:52;11.44;81.69
70708;SHT30;58277;47.316;18.908;2022-10-16T03:14:15;11.47;81.59
70708;SHT30;58277;47.316;18.908;2022-10-16T03:16:38;11.39;82.02
70708;SHT30;58277;47.316;18.908;2022-10-16T03:19:00;11.31;82.31
70708;SHT30;58277;47.316;18.908;2022-10-16T03:21:23;11.23;82.81
70708;SHT30;58277;47.316;18.908;2022-10-16T03:23:46;11.31;82.46
70708;SHT30;58277;47.316;18.908;2022-10-16T03:26:08;11.38;82.32
70708;SHT30;58277;47.316;18.908;2022-10-16T03:28:31;11.38;82.36
70708;SHT30;58277;47.316;18.908;2022-10-16T03:30:54;11.28;82.90
70708;SHT30;58277;47.316;18.908;2022-10-16T03:33:16;11.26;83.01
70708;SHT30;58277;47.316;18.908;2022-10-16T03:35:40;11.20;83.23
70708;SHT30;58277;47.316;18.908;2022-10-16T03:38:03;11.18;83.59
70708;SHT30;58277;47.316;18.908;2022-10-16T03:40:25;11.16;83.89
70708;SHT30;58277;47.316;18.908;2022-10-16T03:42:48;11.13;83.92
70708;SHT30;58277;47.316;18.908;2022-10-16T03:45:11;11.24;83.37
70708;SHT30;58277;47.316;18.908;2022-10-16T03:47:34;11.28;82.99
70708;SHT30;58277;47.316;18.908;2022-10-16T03:49:57;11.27;82.99
70708;SHT30;58277;47.316;18.908;2022-10-16T03:52:19;11.27;83.05
70708;SHT30;58277;47.316;18.908;2022-10-16T03:54:42;11.23;83.43
70708;SHT30;58277;47.316;18.908;2022-10-16T03:57:04;11.23;83.33
70708;SHT30;58277;47.316;18.908;2022-10-16T03:59:27;11.17;83.56
70708;SHT30;58277;47.316;18.908;2022-10-16T04:01:50;11.16;83.76
70708;SHT30;58277;47.316;18.908;2022-10-16T04:04:12;11.17;84.30
70708;SHT30;58277;47.316;18.908;2022-10-16T04:06:35;11.16;84.01
70708;SHT30;58277;47.316;18.908;2022-10-16T04:08:57;11.20;83.70
70708;SHT30;58277;47.316;18.908;2022-10-16T04:11:20;11.17;84.08
70708;SHT30;58277;47.316;18.908;2022-10-16T04:13:43;11.08;84.28
70708;SHT30;58277;47.316;18.908;2022-10-16T04:16:06;10.99;84.70
70708;SHT30;58277;47.316;18.908;2022-10-16T04:18:28;11.04;84.63
70708;SHT30;58277;47.316;18.908;2022-10-16T04:20:51;10.99;85.05
70708;SHT30;58277;47.316;18.908;2022-10-16T04:23:13;11.00;85.02
70708;SHT30;58277;47.316;18.908;2022-10-16T04:25:36;10.96;85.11
70708;SHT30;58277;47.316;18.908;2022-10-16T04:27:59;10.88;85.75
70708;SHT30;58277;47.316;18.908;2022-10-16T04:30:22;10.81;86.05
70708;SHT30;58277;47.316;18.908;2022-10-16T04:32:50;10.84;85.71
70708;SHT30;58277;47.316;18.908;2022-10-16T04:35:13;10.89;85.58
70708;SHT30;58277;47.316;18.908;2022-10-16T04:37:37;10.88;85.61
70708;SHT30;58277;47.316;18.908;2022-10-16T04:39:59;10.69;86.50
70708;SHT30;58277;47.316;18.908;2022-10-16T04:42:22;10.77;86.33
70708;SHT30;58277;47.316;18.908;2022-10-16T04:44:45;10.81;86.21
70708;SHT30;58277;47.316;18.908;2022-10-16T04:47:12;10.76;86.41
70708;SHT30;58277;47.316;18.908;2022-10-16T04:49:35;10.68;86.61
70708;SHT30;58277;47.316;18.908;2022-10-16T04:51:58;10.68;86.71
70708;SHT30;58277;47.316;18.908;2022-10-16T04:54:21;10.70;86.31
70708;SHT30;58277;47.316;18.908;2022-10-16T04:56:43;10.81;85.82
70708;SHT30;58277;47.316;18.908;2022-10-16T04:59:09;10.70;86.22
70708;SHT30;58277;47.316;18.908;2022-10-16T05:01:32;10.77;86.23
70708;SHT30;58277;47.316;18.908;2022-10-16T05:03:54;10.65;86.75
70708;SHT30;58277;47.316;18.908;2022-10-16T05:06:17;10.51;87.06
70708;SHT30;58277;47.316;18.908;2022-10-16T05:08:39;10.45;87.39
70708;SHT30;58277;47.316;18.908;2022-10-16T05:11:02;10.46;87.45
70708;SHT30;58277;47.316;18.908;2022-10-16T05:13:25;10.53;87.40
70708;SHT30;58277;47.316;18.908;2022-10-16T05:15:48;10.62;86.82
70708;SHT30;58277;47.316;18.908;2022-10-16T05:18:11;10.59;86.80
70708;SHT30;58277;47.316;18.908;2022-10-16T05:20:33;10.53;86.53
70708;SHT30;58277;47.316;18.908;2022-10-16T05:22:56;10.55;86.55
70708;SHT30;58277;47.316;18.908;2022-10-16T05:25:18;10.58;86.00
70708;SHT30;58277;47.316;18.908;2022-10-16T05:27:41;10.70;85.35
70708;SHT30;58277;47.316;18.908;2022-10-16T05:30:04;10.70;84.68
70708;SHT30;58277;47.316;18.908;2022-10-16T05:32:31;10.70;84.42
70708;SHT30;58277;47.316;18.908;2022-10-16T05:34:54;10.81;84.20
70708;SHT30;58277;47.316;18.908;2022-10-16T05:37:16;10.92;83.75
70708;SHT30;58277;47.316;18.908;2022-10-16T05:39:39;10.92;83.44
70708;SHT30;58277;47.316;18.908;2022-10-16T05:42:01;11.00;83.02
70708;SHT30;58277;47.316;18.908;2022-10-16T05:44:24;11.00;82.51
70708;SHT30;58277;47.316;18.908;2022-10-16T05:46:46;11.07;82.37
70708;SHT30;58277;47.316;18.908;2022-10-16T05:49:09;11.16;82.29
70708;SHT30;58277;47.316;18.908;2022-10-16T05:51:32;11.20;81.81
70708;SHT30;58277;47.316;18.908;2022-10-16T05:53:54;11.24;81.34
70708;SHT30;58277;47.316;18.908;2022-10-16T05:56:17;11.35;80.82
70708;SHT30;58277;47.316;18.908;2022-10-16T05:58:40;11.37;80.68
70708;SHT30;58277;47.316;18.908;2022-10-16T06:01:05;11.48;80.24
70708;SHT30;58277;47.316;18.908;2022-10-16T06:03:29;11.61;80.20
70708;SHT30;58277;47.316;18.908;2022-10-16T06:05:52;11.55;79.70
70708;SHT30;58277;47.316;18.908;2022-10-16T06:08:15;11.68;79.36
70708;SHT30;58277;47.316;18.908;2022-10-16T06:10:38;11.69;79.49
70708;SHT30;58277;47.316;18.908;2022-10-16T06:13:00;11.78;78.53
70708;SHT30;58277;47.316;18.908;2022-10-16T06:15:23;11.81;79.10
70708;SHT30;58277;47.316;18.908;2022-10-16T06:17:45;11.85;78.10
70708;SHT30;58277;47.316;18.908;2022-10-16T06:20:08;11.96;78.17
70708;SHT30;58277;47.316;18.908;2022-10-16T06:22:31;12.20;77.27
70708;SHT30;58277;47.316;18.908;2022-10-16T06:24:54;12.33;76.84
70708;SHT30;58277;47.316;18.908;2022-10-16T06:27:16;12.41;76.85
70708;SHT30;58277;47.316;18.908;2022-10-16T06:29:39;12.30;76.11
70708;SHT30;58277;47.316;18.908;2022-10-16T06:32:02;12.40;75.96
70708;SHT30;58277;47.316;18.908;2022-10-16T06:34:25;12.48;76.18
70708;SHT30;58277;47.316;18.908;2022-10-16T06:36:47;12.48;76.28
70708;SHT30;58277;47.316;18.908;2022-10-16T06:39:09;12.45;75.85
70708;SHT30;58277;47.316;18.908;2022-10-16T06:41:33;12.40;75.98
70708;SHT30;58277;47.316;18.908;2022-10-16T06:44:09;12.52;75.98
70708;SHT30;58277;47.316;18.908;2022-10-16T06:46:32;12.54;75.78
70708;SHT30;58277;47.316;18.908;2022-10-16T06:48:55;12.74;75.62
70708;SHT30;58277;47.316;18.908;2022-10-16T06:51:19;12.93;74.92
70708;SHT30;58277;47.316;18.908;2022-10-16T06:53:47;13.09;73.61
70708;SHT30;58277;47.316;18.908;2022-10-16T06:56:27;12.95;73.84
70708;SHT30;58277;47.316;18.908;2022-10-16T06:58:52;12.84;74.19
70708;SHT30;58277;47.316;18.908;2022-10-16T07:01:17;12.89;74.64
70708;SHT30;58277;47.316;18.908;2022-10-16T07:03:41;12.92;74.10
70708;SHT30;58277;47.316;18.908;2022-10-16T07:06:05;13.02;74.42
70708;SHT30;58277;47.316;18.908;2022-10-16T07:08:33;13.09;74.00
70708;SHT30;58277;47.316;18.908;2022-10-16T07:11:10;13.17;74.06
70708;SHT30;58277;47.316;18.908;2022-10-16T07:13:34;13.40;73.13
70708;SHT30;58277;47.316;18.908;2022-10-16T07:15:57;13.81;73.01
70708;SHT30;58277;47.316;18.908;2022-10-16T07:18:19;14.67;68.82
70708;SHT30;58277;47.316;18.908;2022-10-16T07:20:42;15.12;66.83
70708;SHT30;58277;47.316;18.908;2022-10-16T07:23:05;15.69;65.68
70708;SHT30;58277;47.316;18.908;2022-10-16T07:25:28;16.19;63.94
70708;SHT30;58277;47.316;18.908;2022-10-16T07:27:51;16.45;62.36
70708;SHT30;58277;47.316;18.908;2022-10-16T07:30:14;16.86;61.10
70708;SHT30;58277;47.316;18.908;2022-10-16T07:32:36;17.28;60.16
70708;SHT30;58277;47.316;18.908;2022-10-16T07:34:59;17.32;59.20
70708;SHT30;58277;47.316;18.908;2022-10-16T07:37:21;17.58;57.97
70708;SHT30;58277;47.316;18.908;2022-10-16T07:39:44;17.36;58.55
70708;SHT30;58277;47.316;18.908;2022-10-16T07:42:07;17.28;57.94
70708;SHT30;58277;47.316;18.908;2022-10-16T07:44:30;17.28;58.65
70708;SHT30;58277;47.316;18.908;2022-10-16T07:46:52;16.12;61.63
70708;SHT30;58277;47.316;18.908;2022-10-16T07:49:15;15.59;63.64
70708;SHT30;58277;47.316;18.908;2022-10-16T07:51:37;15.14;65.40
70708;SHT30;58277;47.316;18.908;2022-10-16T07:54:03;14.88;66.70
70708;SHT30;58277;47.316;18.908;2022-10-16T07:56:25;14.80;66.51
70708;SHT30;58277;47.316;18.908;2022-10-16T07:58:49;14.97;66.20
70708;SHT30;58277;47.316;18.908;2022-10-16T08:01:14;14.84;66.60
70708;SHT30;58277;47.316;18.908;2022-10-16T08:03:37;14.87;66.33
70708;SHT30;58277;47.316;18.908;2022-10-16T08:06:00;14.85;66.07
70708;SHT30;58277;47.316;18.908;2022-10-16T08:08:23;14.64;66.59
70708;SHT30;58277;47.316;18.908;2022-10-16T08:10:46;14.59;67.52
70708;SHT30;58277;47.316;18.908;2022-10-16T08:13:09;14.57;67.31
70708;SHT30;58277;47.316;18.908;2022-10-16T08:15:32;14.57;67.30
70708;SHT30;58277;47.316;18.908;2022-10-16T08:18:00;14.70;66.33
70708;SHT30;58277;47.316;18.908;2022-10-16T08:20:23;14.66;67.27
70708;SHT30;58277;47.316;18.908;2022-10-16T08:22:45;14.76;66.96
70708;SHT30;58277;47.316;18.908;2022-10-16T08:25:08;14.85;67.08
70708;SHT30;58277;47.316;18.908;2022-10-16T08:27:33;14.95;67.13
70708;SHT30;58277;47.316;18.908;2022-10-16T08:29:56;15.05;66.60
70708;SHT30;58277;47.316;18.908;2022-10-16T08:32:19;14.98;67.05
70708;SHT30;58277;47.316;18.908;2022-10-16T08:34:46;14.99;67.97
70708;SHT30;58277;47.316;18.908;2022-10-16T08:37:09;15.05;66.99
70708;SHT30;58277;47.316;18.908;2022-10-16T08:39:33;15.14;67.00
70708;SHT30;58277;47.316;18.908;2022-10-16T08:50:11;15.42;65.91
70708;SHT30;58277;47.316;18.908;2022-10-16T08:52:35;15.32;66.05
70708;SHT30;58277;47.316;18.908;2022-10-16T08:55:01;15.40;65.56
70708;SHT30;58277;47.316;18.908;2022-10-16T08:57:25;15.43;65.42
70708;SHT30;58277;47.316;18.908;2022-10-16T08:59:49;15.50;65.89
70708;SHT30;58277;47.316;18.908;2022-10-16T09:02:34;15.54;65.89
70708;SHT30;58277;47.316;18.908;2022-10-16T09:07:52;15.57;65.71
70708;SHT30;58277;47.316;18.908;2022-10-16T09:12:55;15.77;66.11
70708;SHT30;58277;47.316;18.908;2022-10-16T09:16:10;15.84;65.56
70708;SHT30;58277;47.316;18.908;2022-10-16T09:18:27;15.97;66.61
70708;SHT30;58277;47.316;18.908;2022-10-16T09:23:37;16.21;64.77
70708;SHT30;58277;47.316;18.908;2022-10-16T09:26:01;16.18;65.05
70708;SHT30;58277;47.316;18.908;2022-10-16T09:28:25;16.25;64.66
70708;SHT30;58277;47.316;18.908;2022-10-16T09:30:48;16.17;63.51
70708;SHT30;58277;47.316;18.908;2022-10-16T09:33:36;16.19;64.61
70708;SHT30;58277;47.316;18.908;2022-10-16T09:36:02;16.29;64.46
70708;SHT30;58277;47.316;18.908;2022-10-16T09:40:50;16.55;64.51
70708;SHT30;58277;47.316;18.908;2022-10-16T09:43:52;16.60;63.49
70708;SHT30;58277;47.316;18.908;2022-10-16T09:46:35;16.55;63.52
70708;SHT30;58277;47.316;18.908;2022-10-16T09:49:01;16.65;63.41
70708;SHT30;58277;47.316;18.908;2022-10-16T09:51:35;16.65;63.81
70708;SHT30;58277;47.316;18.908;2022-10-16T09:54:01;16.67;63.59
70708;SHT30;58277;47.316;18.908;2022-10-16T09:58:54;16.90;62.18
70708;SHT30;58277;47.316;18.908;2022-10-16T10:01:17;16.96;63.40
70708;SHT30;58277;47.316;18.908;2022-10-16T10:03:42;16.99;62.39
70708;SHT30;58277;47.316;18.908;2022-10-16T10:06:20;17.10;62.55
70708;SHT30;58277;47.316;18.908;2022-10-16T10:08:54;17.13;63.33
70708;SHT30;58277;47.316;18.908;2022-10-16T10:11:17;17.20;62.27
70708;SHT30;58277;47.316;18.908;2022-10-16T10:13:39;17.24;61.98
70708;SHT30;58277;47.316;18.908;2022-10-16T10:16:02;17.25;61.48
70708;SHT30;58277;47.316;18.908;2022-10-16T10:18:25;17.20;61.79
70708;SHT30;58277;47.316;18.908;2022-10-16T10:20:59;17.24;62.03
70708;SHT30;58277;47.316;18.908;2022-10-16T10:23:25;17.44;61.70
70708;SHT30;58277;47.316;18.908;2022-10-16T10:26:11;17.55;60.98
70708;SHT30;58277;47.316;18.908;2022-10-16T10:31:25;17.68;61.42
70708;SHT30;58277;47.316;18.908;2022-10-16T10:36:37;17.75;60.33
70708;SHT30;58277;47.316;18.908;2022-10-16T10:39:12;17.76;61.49
70708;SHT30;58277;47.316;18.908;2022-10-16T10:41:59;17.89;60.92
70708;SHT30;58277;47.316;18.908;2022-10-16T10:44:54;17.99;60.83
70708;SHT30;58277;47.316;18.908;2022-10-16T10:47:46;18.09;61.05
70708;SHT30;58277;47.316;18.908;2022-10-16T10:53:02;18.09;60.23
70708;SHT30;58277;47.316;18.908;2022-10-16T10:55:46;18.10;59.67
70708;SHT30;58277;47.316;18.908;2022-10-16T10:58:40;18.21;60.24
70708;SHT30;58277;47.316;18.908;2022-10-16T11:01:16;18.30;59.77
70708;SHT30;58277;47.316;18.908;2022-10-16T11:04:08;18.34;59.52
70708;SHT30;58277;47.316;18.908;2022-10-16T11:06:43;18.45;59.37
70708;SHT30;58277;47.316;18.908;2022-10-16T11:09:18;18.51;58.74
70708;SHT30;58277;47.316;18.908;2022-10-16T11:11:48;18.49;58.88
70708;SHT30;58277;47.316;18.908;2022-10-16T11:17:21;18.61;58.55
70708;SHT30;58277;47.316;18.908;2022-10-16T11:22:56;18.73;57.85
70708;SHT30;58277;47.316;18.908;2022-10-16T11:25:21;18.84;58.88
70708;SHT30;58277;47.316;18.908;2022-10-16T11:30:30;18.96;57.57
70708;SHT30;58277;47.316;18.908;2022-10-16T11:33:04;19.09;57.66
70708;SHT30;58277;47.316;18.908;2022-10-16T11:35:33;19.09;56.43
70708;SHT30;58277;47.316;18.908;2022-10-16T11:38:02;19.22;57.43
70708;SHT30;58277;47.316;18.908;2022-10-16T11:40:33;19.38;56.50
70708;SHT30;58277;47.316;18.908;2022-10-16T11:43:13;19.34;55.74
70708;SHT30;58277;47.316;18.908;2022-10-16T11:45:44;19.38;56.37
70708;SHT30;58277;47.316;18.908;2022-10-16T11:48:22;19.37;56.21
70708;SHT30;58277;47.316;18.908;2022-10-16T11:54:07;19.35;55.61
70708;SHT30;58277;47.316;18.908;2022-10-16T11:56:20;19.41;55.42
70708;SHT30;58277;47.316;18.908;2022-10-16T11:58:50;19.50;55.20
70708;SHT30;58277;47.316;18.908;2022-10-16T12:01:40;19.43;55.40
70708;SHT30;58277;47.316;18.908;2022-10-16T12:06:52;19.64;54.79
70708;SHT30;58277;47.316;18.908;2022-10-16T12:09:27;19.64;54.93
70708;SHT30;58277;47.316;18.908;2022-10-16T12:11:51;19.67;55.16
70708;SHT30;58277;47.316;18.908;2022-10-16T12:16:38;19.70;55.14
70708;SHT30;58277;47.316;18.908;2022-10-16T12:19:15;19.68;55.01
70708;SHT30;58277;47.316;18.908;2022-10-16T12:21:38;19.75;53.95
70708;SHT30;58277;47.316;18.908;2022-10-16T12:24:03;19.82;54.71
70708;SHT30;58277;47.316;18.908;2022-10-16T12:26:36;19.71;53.68
70708;SHT30;58277;47.316;18.908;2022-10-16T12:31:55;19.86;55.38
70708;SHT30;58277;47.316;18.908;2022-10-16T12:34:23;19.93;54.70
70708;SHT30;58277;47.316;18.908;2022-10-16T12:36:49;20.12;54.85
70708;SHT30;58277;47.316;18.908;2022-10-16T12:39:24;20.02;53.52
70708;SHT30;58277;47.316;18.908;2022-10-16T12:41:47;20.12;53.65
70708;SHT30;58277;47.316;18.908;2022-10-16T12:44:25;20.06;54.34
70708;SHT30;58277;47.316;18.908;2022-10-16T12:46:50;20.17;53.69
70708;SHT30;58277;47.316;18.908;2022-10-16T12:51:36;20.23;53.50
70708;SHT30;58277;47.316;18.908;2022-10-16T12:54:03;20.12;53.42
70708;SHT30;58277;47.316;18.908;2022-10-16T12:59:29;20.09;53.62
70708;SHT30;58277;47.316;18.908;2022-10-16T13:08:16;20.09;52.73
70708;SHT30;58277;47.316;18.908;2022-10-16T13:16:19;20.17;54.28
70708;SHT30;58277;47.316;18.908;2022-10-16T13:22:42;20.23;54.20
70708;SHT30;58277;47.316;18.908;2022-10-16T13:27:33;20.08;52.59
70708;SHT30;58277;47.316;18.908;2022-10-16T13:30:11;20.05;52.84
70708;SHT30;58277;47.316;18.908;2022-10-16T13:32:34;20.05;53.99
70708;SHT30;58277;47.316;18.908;2022-10-16T13:34:57;20.06;52.94
70708;SHT30;58277;47.316;18.908;2022-10-16T13:37:24;20.09;53.75
70708;SHT30;58277;47.316;18.908;2022-10-16T13:39:48;20.15;53.64
70708;SHT30;58277;47.316;18.908;2022-10-16T13:42:25;20.05;53.40
70708;SHT30;58277;47.316;18.908;2022-10-16T13:44:52;20.12;53.48
70708;SHT30;58277;47.316;18.908;2022-10-16T13:47:26;20.09;54.19
70708;SHT30;58277;47.316;18.908;2022-10-16T13:50:03;20.13;54.33
70708;SHT30;58277;47.316;18.908;2022-10-16T13:52:27;20.22;53.87
70708;SHT30;58277;47.316;18.908;2022-10-16T13:54:50;20.09;53.91
70708;SHT30;58277;47.316;18.908;2022-10-16T13:57:15;20.09;53.83
70708;SHT30;58277;47.316;18.908;2022-10-16T13:59:48;20.09;54.29
70708;SHT30;58277;47.316;18.908;2022-10-16T14:04:49;19.96;52.85
70708;SHT30;58277;47.316;18.908;2022-10-16T14:07:15;19.95;52.92
70708;SHT30;58277;47.316;18.908;2022-10-16T14:09:48;19.93;52.82
70708;SHT30;58277;47.316;18.908;2022-10-16T14:12:12;19.86;53.18
70708;SHT30;58277;47.316;18.908;2022-10-16T14:14:41;19.89;53.68
70708;SHT30;58277;47.316;18.908;2022-10-16T14:17:03;19.93;54.20
70708;SHT30;58277;47.316;18.908;2022-10-16T14:19:28;19.90;54.56
70708;SHT30;58277;47.316;18.908;2022-10-16T14:21:51;20.02;54.59
70708;SHT30;58277;47.316;18.908;2022-10-16T14:24:31;20.04;53.76
70708;SHT30;58277;47.316;18.908;2022-10-16T14:26:54;19.98;54.56
70708;SHT30;58277;47.316;18.908;2022-10-16T14:29:19;19.78;55.09
70708;SHT30;58277;47.316;18.908;2022-10-16T14:31:43;19.62;55.86
70708;SHT30;58277;47.316;18.908;2022-10-16T14:34:30;19.67;55.17
70708;SHT30;58277;47.316;18.908;2022-10-16T14:36:55;19.70;55.63
70708;SHT30;58277;47.316;18.908;2022-10-16T14:39:20;19.50;56.22
70708;SHT30;58277;47.316;18.908;2022-10-16T14:41:45;19.49;55.97
70708;SHT30;58277;47.316;18.908;2022-10-16T14:44:12;19.34;56.41
70708;SHT30;58277;47.316;18.908;2022-10-16T14:46:36;19.30;55.49
70708;SHT30;58277;47.316;18.908;2022-10-16T14:49:13;19.19;56.45
70708;SHT30;58277;47.316;18.908;2022-10-16T14:51:39;19.16;56.34
70708;SHT30;58277;47.316;18.908;2022-10-16T14:54:08;19.10;57.14
70708;SHT30;58277;47.316;18.908;2022-10-16T14:56:36;19.10;56.55
70708;SHT30;58277;47.316;18.908;2022-10-16T14:59:04;19.10;57.62
70708;SHT30;58277;47.316;18.908;2022-10-16T15:01:27;19.13;56.95
70708;SHT30;58277;47.316;18.908;2022-10-16T15:03:50;18.99;57.21
70708;SHT30;58277;47.316;18.908;2022-10-16T15:06:15;18.91;58.12
70708;SHT30;58277;47.316;18.908;2022-10-16T15:08:38;18.84;58.46
70708;SHT30;58277;47.316;18.908;2022-10-16T15:11:01;18.77;58.49
70708;SHT30;58277;47.316;18.908;2022-10-16T15:13:24;18.51;59.20
70708;SHT30;58277;47.316;18.908;2022-10-16T15:15:47;18.52;59.35
70708;SHT30;58277;47.316;18.908;2022-10-16T15:18:09;18.52;59.46
70708;SHT30;58277;47.316;18.908;2022-10-16T15:20:34;18.41;59.72
70708;SHT30;58277;47.316;18.908;2022-10-16T15:22:57;18.38;59.71
70708;SHT30;58277;47.316;18.908;2022-10-16T15:27:48;18.30;59.79
70708;SHT30;58277;47.316;18.908;2022-10-16T15:30:11;18.23;60.08
70708;SHT30;58277;47.316;18.908;2022-10-16T15:32:34;18.18;60.33
70708;SHT30;58277;47.316;18.908;2022-10-16T15:34:56;18.01;61.02
70708;SHT30;58277;47.316;18.908;2022-10-16T15:37:19;17.96;61.06
70708;SHT30;58277;47.316;18.908;2022-10-16T15:39:43;17.91;61.27
70708;SHT30;58277;47.316;18.908;2022-10-16T15:42:05;17.80;61.58
70708;SHT30;58277;47.316;18.908;2022-10-16T15:44:28;17.65;62.08
70708;SHT30;58277;47.316;18.908;2022-10-16T15:46:54;17.62;62.14
70708;SHT30;58277;47.316;18.908;2022-10-16T15:49:17;17.61;62.32
70708;SHT30;58277;47.316;18.908;2022-10-16T15:51:41;17.46;62.64
70708;SHT30;58277;47.316;18.908;2022-10-16T15:54:04;17.31;63.20
70708;SHT30;58277;47.316;18.908;2022-10-16T15:56:27;17.27;63.14
70708;SHT30;58277;47.316;18.908;2022-10-16T15:58:51;17.27;63.39
70708;SHT30;58277;47.316;18.908;2022-10-16T16:01:14;17.18;63.43
70708;SHT30;58277;47.316;18.908;2022-10-16T16:03:38;17.15;63.72
70708;SHT30;58277;47.316;18.908;2022-10-16T16:06:08;17.06;63.92
70708;SHT30;58277;47.316;18.908;2022-10-16T16:08:32;17.10;63.68
70708;SHT30;58277;47.316;18.908;2022-10-16T16:11:03;17.10;63.59
70708;SHT30;58277;47.316;18.908;2022-10-16T16:13:26;17.10;63.62
70708;SHT30;58277;47.316;18.908;2022-10-16T16:15:49;17.04;63.92
70708;SHT30;58277;47.316;18.908;2022-10-16T16:18:12;16.99;64.04
70708;SHT30;58277;47.316;18.908;2022-10-16T16:20:34;16.84;64.50
70708;SHT30;58277;47.316;18.908;2022-10-16T16:22:57;16.81;64.52
70708;SHT30;58277;47.316;18.908;2022-10-16T16:25:20;16.84;64.37
70708;SHT30;58277;47.316;18.908;2022-10-16T16:27:44;16.67;64.92
70708;SHT30;58277;47.316;18.908;2022-10-16T16:30:07;16.73;65.08